sensor_id;sensor_type;location;lat;lon;timestamp;P1;durP1;ratioP1;P2;durP2;ratioP2
10309;SDS011;5200;43.236;27.986;2023-06-04T00:02:01;7.35;;;4.28;;
10309;SDS011;5200;43.236;27.986;2023-06-04T00:04:28;8.57;;;4.30;;
10309;SDS011;5200;43.236;27.986;2023-06-04T00:06:55;5.80;;;4.20;;
10309;SDS011;5200;43.236;27.986;2023-06-04T00:09:22;8.20;;;4.25;;
10309;SDS011;5200;43.236;27.986;2023-06-04T00:11:49;5.40;;;4.55;;
10309;SDS011;5200;43.236;27.986;2023-06-04T00:14:16;9.38;;;4.07;;
10309;SDS011;5200;43.236;27.986;2023-06-04T00:16:43;4.43;;;3.67;;
10309;SDS011;5200;43.236;27.986;2023-06-04T00:19:11;5.28;;;4.13;;
10309;SDS011;5200;43.236;27.986;2023-06-04T00:21:38;6.55;;;4.10;;
10309;SDS011;5200;43.236;27.986;2023-06-04T00:24:05;6.82;;;4.50;;
10309;SDS011;5200;43.236;27.986;2023-06-04T00:26:32;7.45;;;3.80;;
10309;SDS011;5200;43.236;27.986;2023-06-04T00:29:00;4.22;;;3.83;;
10309;SDS011;5200;43.236;27.986;2023-06-04T00:31:27;5.30;;;3.92;;
10309;SDS011;5200;43.236;27.986;2023-06-04T00:33:54;4.22;;;3.80;;
10309;SDS011;5200;43.236;27.986;2023-06-04T00:36:22;4.35;;;3.80;;
10309;SDS011;5200;43.236;27.986;2023-06-04T00:38:49;6.93;;;4.13;;
10309;SDS011;5200;43.236;27.986;2023-06-04T00:41:15;6.28;;;3.58;;
10309;SDS011;5200;43.236;27.986;2023-06-04T00:43:42;4.18;;;3.72;;
10309;SDS011;5200;43.236;27.986;2023-06-04T00:46:11;4.80;;;3.35;;
10309;SDS011;5200;43.236;27.986;2023-06-04T00:48:43;4.22;;;3.38;;
10309;SDS011;5200;43.236;27.986;2023-06-04T00:51:10;6.03;;;3.40;;
10309;SDS011;5200;43.236;27.986;2023-06-04T00:53:40;5.22;;;3.22;;
10309;SDS011;5200;43.236;27.986;2023-06-04T00:56:07;5.70;;;4.50;;
10309;SDS011;5200;43.236;27.986;2023-06-04T00:58:37;5.25;;;4.18;;
10309;SDS011;5200;43.236;27.986;2023-06-04T01:01:05;7.22;;;3.70;;
10309;SDS011;5200;43.236;27.986;2023-06-04T01:03:38;3.92;;;3.55;;
10309;SDS011;5200;43.236;27.986;2023-06-04T01:06:12;5.43;;;3.08;;
10309;SDS011;5200;43.236;27.986;2023-06-04T01:08:47;4.63;;;3.60;;
10309;SDS011;5200;43.236;27.986;2023-06-04T01:11:18;3.90;;;3.50;;
10309;SDS011;5200;43.236;27.986;2023-06-04T01:13:45;5.20;;;3.55;;
10309;SDS011;5200;43.236;27.986;2023-06-04T01:16:11;4.57;;;3.95;;
10309;SDS011;5200;43.236;27.986;2023-06-04T01:18:41;4.28;;;3.67;;
10309;SDS011;5200;43.236;27.986;2023-06-04T01:21:09;4.70;;;3.80;;
10309;SDS011;5200;43.236;27.986;2023-06-04T01:23:46;5.13;;;4.10;;
10309;SDS011;5200;43.236;27.986;2023-06-04T01:26:23;6.53;;;3.45;;
10309;SDS011;5200;43.236;27.986;2023-06-04T01:28:51;4.68;;;3.42;;
10309;SDS011;5200;43.236;27.986;2023-06-04T01:31:19;7.40;;;3.50;;
10309;SDS011;5200;43.236;27.986;2023-06-04T01:33:48;6.55;;;3.90;;
10309;SDS011;5200;43.236;27.986;2023-06-04T01:36:17;4.18;;;3.47;;
10309;SDS011;5200;43.236;27.986;2023-06-04T01:38:43;4.80;;;3.15;;
10309;SDS011;5200;43.236;27.986;2023-06-04T01:41:12;5.28;;;3.30;;
10309;SDS011;5200;43.236;27.986;2023-06-04T01:43:38;5.13;;;3.40;;
10309;SDS011;5200;43.236;27.986;2023-06-04T01:46:05;4.28;;;3.28;;
10309;SDS011;5200;43.236;27.986;2023-06-04T01:48:32;4.72;;;2.90;;
10309;SDS011;5200;43.236;27.986;2023-06-04T01:51:00;6.05;;;3.47;;
10309;SDS011;5200;43.236;27.986;2023-06-04T01:53:27;4.15;;;3.10;;
10309;SDS011;5200;43.236;27.986;2023-06-04T01:55:54;8.43;;;3.15;;
10309;SDS011;5200;43.236;27.986;2023-06-04T01:58:23;5.32;;;3.00;;
10309;SDS011;5200;43.236;27.986;2023-06-04T02:00:51;6.70;;;3.45;;
10309;SDS011;5200;43.236;27.986;2023-06-04T02:03:20;5.03;;;3.15;;
10309;SDS011;5200;43.236;27.986;2023-06-04T02:05:47;4.32;;;3.05;;
10309;SDS011;5200;43.236;27.986;2023-06-04T02:08:14;3.42;;;2.70;;
10309;SDS011;5200;43.236;27.986;2023-06-04T02:10:44;4.18;;;2.90;;
10309;SDS011;5200;43.236;27.986;2023-06-04T02:13:12;7.75;;;2.80;;
10309;SDS011;5200;43.236;27.986;2023-06-04T02:15:40;3.85;;;3.10;;
10309;SDS011;5200;43.236;27.986;2023-06-04T02:18:11;3.63;;;2.85;;
10309;SDS011;5200;43.236;27.986;2023-06-04T02:20:41;4.60;;;2.75;;
10309;SDS011;5200;43.236;27.986;2023-06-04T02:23:07;3.22;;;2.38;;
10309;SDS011;5200;43.236;27.986;2023-06-04T02:25:34;3.95;;;2.60;;
10309;SDS011;5200;43.236;27.986;2023-06-04T02:28:01;6.57;;;3.00;;
10309;SDS011;5200;43.236;27.986;2023-06-04T02:30:28;5.90;;;2.53;;
10309;SDS011;5200;43.236;27.986;2023-06-04T02:32:56;3.60;;;2.50;;
10309;SDS011;5200;43.236;27.986;2023-06-04T02:35:26;2.70;;;2.47;;
10309;SDS011;5200;43.236;27.986;2023-06-04T02:37:53;3.40;;;2.22;;
10309;SDS011;5200;43.236;27.986;2023-06-04T02:40:21;4.65;;;2.35;;
10309;SDS011;5200;43.236;27.986;2023-06-04T02:42:48;2.88;;;2.60;;
10309;SDS011;5200;43.236;27.986;2023-06-04T02:45:15;7.25;;;2.50;;
10309;SDS011;5200;43.236;27.986;2023-06-04T02:47:42;4.47;;;2.70;;
10309;SDS011;5200;43.236;27.986;2023-06-04T02:50:10;2.65;;;2.45;;
10309;SDS011;5200;43.236;27.986;2023-06-04T02:52:38;4.93;;;2.42;;
10309;SDS011;5200;43.236;27.986;2023-06-04T02:55:05;3.13;;;2.63;;
10309;SDS011;5200;43.236;27.986;2023-06-04T02:57:34;3.13;;;2.80;;
10309;SDS011;5200;43.236;27.986;2023-06-04T03:00:01;3.55;;;2.33;;
10309;SDS011;5200;43.236;27.986;2023-06-04T03:02:34;3.00;;;2.40;;
10309;SDS011;5200;43.236;27.986;2023-06-04T03:05:00;4.70;;;2.53;;
10309;SDS011;5200;43.236;27.986;2023-06-04T03:07:29;3.15;;;2.33;;
10309;SDS011;5200;43.236;27.986;2023-06-04T03:09:56;6.40;;;2.88;;
10309;SDS011;5200;43.236;27.986;2023-06-04T03:12:23;2.30;;;2.10;;
10309;SDS011;5200;43.236;27.986;2023-06-04T03:14:50;2.72;;;2.10;;
10309;SDS011;5200;43.236;27.986;2023-06-04T03:17:17;5.43;;;2.70;;
10309;SDS011;5200;43.236;27.986;2023-06-04T03:19:43;4.63;;;2.55;;
10309;SDS011;5200;43.236;27.986;2023-06-04T03:22:10;4.00;;;2.80;;
10309;SDS011;5200;43.236;27.986;2023-06-04T03:24:39;4.22;;;2.83;;
10309;SDS011;5200;43.236;27.986;2023-06-04T03:27:07;3.65;;;2.70;;
10309;SDS011;5200;43.236;27.986;2023-06-04T03:29:35;6.35;;;2.65;;
10309;SDS011;5200;43.236;27.986;2023-06-04T03:32:02;5.32;;;2.72;;
10309;SDS011;5200;43.236;27.986;2023-06-04T03:34:29;5.45;;;2.90;;
10309;SDS011;5200;43.236;27.986;2023-06-04T03:36:57;3.40;;;2.90;;
10309;SDS011;5200;43.236;27.986;2023-06-04T03:39:24;6.07;;;2.45;;
10309;SDS011;5200;43.236;27.986;2023-06-04T03:41:53;5.15;;;2.50;;
10309;SDS011;5200;43.236;27.986;2023-06-04T03:44:20;3.05;;;2.80;;
10309;SDS011;5200;43.236;27.986;2023-06-04T03:46:48;2.65;;;2.45;;
10309;SDS011;5200;43.236;27.986;2023-06-04T03:49:15;3.90;;;2.97;;
10309;SDS011;5200;43.236;27.986;2023-06-04T03:51:43;4.88;;;2.60;;
10309;SDS011;5200;43.236;27.986;2023-06-04T03:54:10;4.03;;;2.72;;
10309;SDS011;5200;43.236;27.986;2023-06-04T03:56:37;4.03;;;3.03;;
10309;SDS011;5200;43.236;27.986;2023-06-04T03:59:05;4.68;;;2.63;;
10309;SDS011;5200;43.236;27.986;2023-06-04T04:01:32;3.33;;;3.03;;
10309;SDS011;5200;43.236;27.986;2023-06-04T04:03:59;6.47;;;2.97;;
10309;SDS011;5200;43.236;27.986;2023-06-04T04:06:26;2.30;;;2.10;;
10309;SDS011;5200;43.236;27.986;2023-06-04T04:08:53;3.72;;;2.95;;
10309;SDS011;5200;43.236;27.986;2023-06-04T04:11:20;2.42;;;2.20;;
10309;SDS011;5200;43.236;27.986;2023-06-04T04:13:47;2.28;;;2.05;;
10309;SDS011;5200;43.236;27.986;2023-06-04T04:16:15;2.72;;;2.38;;
10309;SDS011;5200;43.236;27.986;2023-06-04T04:18:42;5.43;;;2.80;;
10309;SDS011;5200;43.236;27.986;2023-06-04T04:21:10;5.85;;;2.28;;
10309;SDS011;5200;43.236;27.986;2023-06-04T04:23:37;3.45;;;2.20;;
10309;SDS011;5200;43.236;27.986;2023-06-04T04:26:05;3.13;;;2.53;;
10309;SDS011;5200;43.236;27.986;2023-06-04T04:28:32;3.55;;;2.55;;
10309;SDS011;5200;43.236;27.986;2023-06-04T04:30:59;5.30;;;2.70;;
10309;SDS011;5200;43.236;27.986;2023-06-04T04:33:28;5.15;;;2.30;;
10309;SDS011;5200;43.236;27.986;2023-06-04T04:36:02;2.33;;;1.95;;
10309;SDS011;5200;43.236;27.986;2023-06-04T04:38:28;3.30;;;1.90;;
10309;SDS011;5200;43.236;27.986;2023-06-04T04:40:58;7.97;;;2.20;;
10309;SDS011;5200;43.236;27.986;2023-06-04T04:43:28;3.55;;;1.88;;
10309;SDS011;5200;43.236;27.986;2023-06-04T04:46:05;2.70;;;2.30;;
10309;SDS011;5200;43.236;27.986;2023-06-04T04:48:33;3.22;;;2.00;;
10309;SDS011;5200;43.236;27.986;2023-06-04T04:51:00;2.00;;;1.90;;
10309;SDS011;5200;43.236;27.986;2023-06-04T04:53:27;2.42;;;1.92;;
10309;SDS011;5200;43.236;27.986;2023-06-04T04:55:53;3.17;;;1.92;;
10309;SDS011;5200;43.236;27.986;2023-06-04T04:58:20;1.88;;;1.60;;
10309;SDS011;5200;43.236;27.986;2023-06-04T05:00:47;2.15;;;1.60;;
10309;SDS011;5200;43.236;27.986;2023-06-04T05:03:14;4.70;;;1.63;;
10309;SDS011;5200;43.236;27.986;2023-06-04T05:05:42;5.80;;;1.65;;
10309;SDS011;5200;43.236;27.986;2023-06-04T05:08:09;7.50;;;1.70;;
10309;SDS011;5200;43.236;27.986;2023-06-04T05:10:36;2.55;;;1.67;;
10309;SDS011;5200;43.236;27.986;2023-06-04T05:13:03;3.97;;;1.67;;
10309;SDS011;5200;43.236;27.986;2023-06-04T05:15:31;3.22;;;1.70;;
10309;SDS011;5200;43.236;27.986;2023-06-04T05:17:58;1.73;;;1.08;;
10309;SDS011;5200;43.236;27.986;2023-06-04T05:20:26;3.80;;;1.48;;
10309;SDS011;5200;43.236;27.986;2023-06-04T05:22:55;2.03;;;1.23;;
10309;SDS011;5200;43.236;27.986;2023-06-04T05:25:22;3.15;;;1.10;;
10309;SDS011;5200;43.236;27.986;2023-06-04T05:27:49;1.92;;;1.50;;
10309;SDS011;5200;43.236;27.986;2023-06-04T05:30:16;2.63;;;1.88;;
10309;SDS011;5200;43.236;27.986;2023-06-04T05:32:43;2.40;;;1.33;;
10309;SDS011;5200;43.236;27.986;2023-06-04T05:35:09;2.60;;;1.50;;
10309;SDS011;5200;43.236;27.986;2023-06-04T05:37:37;3.70;;;1.23;;
10309;SDS011;5200;43.236;27.986;2023-06-04T05:40:07;1.40;;;1.20;;
10309;SDS011;5200;43.236;27.986;2023-06-04T05:42:35;2.88;;;1.52;;
10309;SDS011;5200;43.236;27.986;2023-06-04T05:45:03;1.48;;;1.23;;
10309;SDS011;5200;43.236;27.986;2023-06-04T05:47:30;1.90;;;1.20;;
10309;SDS011;5200;43.236;27.986;2023-06-04T05:49:57;1.55;;;1.00;;
10309;SDS011;5200;43.236;27.986;2023-06-04T05:52:24;2.45;;;1.20;;
10309;SDS011;5200;43.236;27.986;2023-06-04T05:54:51;2.05;;;1.20;;
10309;SDS011;5200;43.236;27.986;2023-06-04T05:57:19;2.58;;;1.20;;
10309;SDS011;5200;43.236;27.986;2023-06-04T05:59:46;2.40;;;1.13;;
10309;SDS011;5200;43.236;27.986;2023-06-04T06:02:13;2.78;;;1.35;;
10309;SDS011;5200;43.236;27.986;2023-06-04T06:04:40;1.77;;;1.27;;
10309;SDS011;5200;43.236;27.986;2023-06-04T06:07:07;1.58;;;0.95;;
10309;SDS011;5200;43.236;27.986;2023-06-04T06:09:34;2.95;;;1.20;;
10309;SDS011;5200;43.236;27.986;2023-06-04T06:12:01;1.63;;;1.08;;
10309;SDS011;5200;43.236;27.986;2023-06-04T06:14:30;1.88;;;1.10;;
10309;SDS011;5200;43.236;27.986;2023-06-04T06:16:57;2.65;;;1.13;;
10309;SDS011;5200;43.236;27.986;2023-06-04T06:19:23;4.13;;;1.35;;
10309;SDS011;5200;43.236;27.986;2023-06-04T06:21:51;3.08;;;1.42;;
10309;SDS011;5200;43.236;27.986;2023-06-04T06:24:18;3.85;;;1.48;;
10309;SDS011;5200;43.236;27.986;2023-06-04T06:26:45;4.43;;;1.40;;
10309;SDS011;5200;43.236;27.986;2023-06-04T06:29:12;2.78;;;1.50;;
10309;SDS011;5200;43.236;27.986;2023-06-04T06:31:40;1.55;;;1.42;;
10309;SDS011;5200;43.236;27.986;2023-06-04T06:34:07;3.80;;;1.25;;
10309;SDS011;5200;43.236;27.986;2023-06-04T06:36:33;2.17;;;1.33;;
10309;SDS011;5200;43.236;27.986;2023-06-04T06:39:00;3.20;;;1.05;;
10309;SDS011;5200;43.236;27.986;2023-06-04T06:41:27;1.40;;;1.30;;
10309;SDS011;5200;43.236;27.986;2023-06-04T06:43:58;2.88;;;1.42;;
10309;SDS011;5200;43.236;27.986;2023-06-04T06:46:26;2.85;;;1.65;;
10309;SDS011;5200;43.236;27.986;2023-06-04T06:48:55;3.90;;;1.52;;
10309;SDS011;5200;43.236;27.986;2023-06-04T06:51:22;2.22;;;1.88;;
10309;SDS011;5200;43.236;27.986;2023-06-04T06:53:49;3.15;;;1.42;;
10309;SDS011;5200;43.236;27.986;2023-06-04T06:56:16;5.55;;;1.77;;
10309;SDS011;5200;43.236;27.986;2023-06-04T06:58:44;2.00;;;1.30;;
10309;SDS011;5200;43.236;27.986;2023-06-04T07:01:11;4.22;;;1.67;;
10309;SDS011;5200;43.236;27.986;2023-06-04T07:03:38;1.52;;;1.35;;
10309;SDS011;5200;43.236;27.986;2023-06-04T07:06:06;6.25;;;1.88;;
10309;SDS011;5200;43.236;27.986;2023-06-04T07:08:33;5.38;;;1.95;;
10309;SDS011;5200;43.236;27.986;2023-06-04T07:11:01;4.40;;;2.13;;
10309;SDS011;5200;43.236;27.986;2023-06-04T07:13:28;5.03;;;1.70;;
10309;SDS011;5200;43.236;27.986;2023-06-04T07:15:57;3.15;;;1.60;;
10309;SDS011;5200;43.236;27.986;2023-06-04T07:18:24;3.20;;;1.85;;
10309;SDS011;5200;43.236;27.986;2023-06-04T07:20:53;5.43;;;1.80;;
10309;SDS011;5200;43.236;27.986;2023-06-04T07:23:22;3.60;;;1.17;;
10309;SDS011;5200;43.236;27.986;2023-06-04T07:25:49;2.13;;;1.50;;
10309;SDS011;5200;43.236;27.986;2023-06-04T07:28:16;2.50;;;1.40;;
10309;SDS011;5200;43.236;27.986;2023-06-04T07:30:44;2.95;;;1.98;;
10309;SDS011;5200;43.236;27.986;2023-06-04T07:33:11;3.00;;;1.98;;
10309;SDS011;5200;43.236;27.986;2023-06-04T07:35:38;2.83;;;1.90;;
10309;SDS011;5200;43.236;27.986;2023-06-04T07:38:05;3.97;;;2.00;;
10309;SDS011;5200;43.236;27.986;2023-06-04T07:40:33;2.67;;;2.00;;
10309;SDS011;5200;43.236;27.986;2023-06-04T07:43:00;2.70;;;1.70;;
10309;SDS011;5200;43.236;27.986;2023-06-04T07:45:27;2.38;;;2.05;;
10309;SDS011;5200;43.236;27.986;2023-06-04T07:47:56;2.80;;;1.77;;
10309;SDS011;5200;43.236;27.986;2023-06-04T07:50:23;1.98;;;1.80;;
10309;SDS011;5200;43.236;27.986;2023-06-04T07:52:50;1.63;;;1.52;;
10309;SDS011;5200;43.236;27.986;2023-06-04T07:55:17;2.00;;;1.90;;
10309;SDS011;5200;43.236;27.986;2023-06-04T07:57:45;2.30;;;1.90;;
10309;SDS011;5200;43.236;27.986;2023-06-04T08:00:12;2.42;;;1.98;;
10309;SDS011;5200;43.236;27.986;2023-06-04T08:02:41;3.60;;;2.08;;
10309;SDS011;5200;43.236;27.986;2023-06-04T08:05:08;2.25;;;1.80;;
10309;SDS011;5200;43.236;27.986;2023-06-04T08:07:35;4.03;;;1.67;;
10309;SDS011;5200;43.236;27.986;2023-06-04T08:10:02;1.63;;;1.48;;
10309;SDS011;5200;43.236;27.986;2023-06-04T08:12:29;4.47;;;1.27;;
10309;SDS011;5200;43.236;27.986;2023-06-04T08:14:57;4.25;;;1.58;;
10309;SDS011;5200;43.236;27.986;2023-06-04T08:17:24;5.35;;;2.10;;
10309;SDS011;5200;43.236;27.986;2023-06-04T08:19:51;2.05;;;1.35;;
10309;SDS011;5200;43.236;27.986;2023-06-04T08:22:17;2.35;;;1.70;;
10309;SDS011;5200;43.236;27.986;2023-06-04T08:24:44;4.88;;;2.47;;
10309;SDS011;5200;43.236;27.986;2023-06-04T08:27:11;4.88;;;2.00;;
10309;SDS011;5200;43.236;27.986;2023-06-04T08:29:38;2.03;;;1.55;;
10309;SDS011;5200;43.236;27.986;2023-06-04T08:32:06;4.38;;;1.45;;
10309;SDS011;5200;43.236;27.986;2023-06-04T08:34:33;7.35;;;1.70;;
10309;SDS011;5200;43.236;27.986;2023-06-04T08:37:00;7.20;;;1.88;;
10309;SDS011;5200;43.236;27.986;2023-06-04T08:39:27;2.00;;;1.58;;
10309;SDS011;5200;43.236;27.986;2023-06-04T08:41:54;1.13;;;1.08;;
10309;SDS011;5200;43.236;27.986;2023-06-04T08:44:27;3.13;;;1.75;;
10309;SDS011;5200;43.236;27.986;2023-06-04T08:46:54;4.90;;;1.60;;
10309;SDS011;5200;43.236;27.986;2023-06-04T08:49:33;5.85;;;1.70;;
10309;SDS011;5200;43.236;27.986;2023-06-04T08:52:02;2.97;;;1.40;;
10309;SDS011;5200;43.236;27.986;2023-06-04T08:54:30;6.68;;;1.90;;
10309;SDS011;5200;43.236;27.986;2023-06-04T08:56:58;2.65;;;1.73;;
10309;SDS011;5200;43.236;27.986;2023-06-04T08:59:26;3.20;;;1.48;;
10309;SDS011;5200;43.236;27.986;2023-06-04T09:01:53;1.48;;;1.38;;
10309;SDS011;5200;43.236;27.986;2023-06-04T09:04:21;1.00;;;0.98;;
10309;SDS011;5200;43.236;27.986;2023-06-04T09:06:49;1.25;;;1.13;;
10309;SDS011;5200;43.236;27.986;2023-06-04T09:09:16;3.30;;;1.50;;
10309;SDS011;5200;43.236;27.986;2023-06-04T09:11:46;3.97;;;1.98;;
10309;SDS011;5200;43.236;27.986;2023-06-04T09:14:17;2.55;;;1.27;;
10309;SDS011;5200;43.236;27.986;2023-06-04T09:16:45;1.80;;;1.13;;
10309;SDS011;5200;43.236;27.986;2023-06-04T09:19:12;4.30;;;1.45;;
10309;SDS011;5200;43.236;27.986;2023-06-04T09:21:46;5.07;;;2.08;;
10309;SDS011;5200;43.236;27.986;2023-06-04T09:24:18;1.50;;;1.20;;
10309;SDS011;5200;43.236;27.986;2023-06-04T09:26:45;2.65;;;0.93;;
10309;SDS011;5200;43.236;27.986;2023-06-04T09:29:16;2.50;;;1.27;;
10309;SDS011;5200;43.236;27.986;2023-06-04T09:31:45;1.70;;;1.27;;
10309;SDS011;5200;43.236;27.986;2023-06-04T09:34:12;4.25;;;1.52;;
10309;SDS011;5200;43.236;27.986;2023-06-04T09:36:40;1.73;;;1.33;;
10309;SDS011;5200;43.236;27.986;2023-06-04T09:39:15;3.03;;;1.70;;
10309;SDS011;5200;43.236;27.986;2023-06-04T09:41:43;4.38;;;1.30;;
10309;SDS011;5200;43.236;27.986;2023-06-04T09:44:10;1.92;;;1.20;;
10309;SDS011;5200;43.236;27.986;2023-06-04T09:46:37;3.28;;;1.70;;
10309;SDS011;5200;43.236;27.986;2023-06-04T09:49:04;7.25;;;1.70;;
10309;SDS011;5200;43.236;27.986;2023-06-04T09:51:32;2.00;;;1.45;;
10309;SDS011;5200;43.236;27.986;2023-06-04T09:53:59;3.10;;;1.13;;
10309;SDS011;5200;43.236;27.986;2023-06-04T09:56:29;1.40;;;1.17;;
10309;SDS011;5200;43.236;27.986;2023-06-04T09:58:57;2.42;;;1.30;;
10309;SDS011;5200;43.236;27.986;2023-06-04T10:01:26;0.60;;;0.50;;
10309;SDS011;5200;43.236;27.986;2023-06-04T10:03:55;1.73;;;1.23;;
10309;SDS011;5200;43.236;27.986;2023-06-04T10:06:24;1.63;;;1.30;;
10309;SDS011;5200;43.236;27.986;2023-06-04T10:08:52;1.27;;;1.10;;
10309;SDS011;5200;43.236;27.986;2023-06-04T10:11:25;4.45;;;1.35;;
10309;SDS011;5200;43.236;27.986;2023-06-04T10:14:00;4.95;;;1.23;;
10309;SDS011;5200;43.236;27.986;2023-06-04T10:16:29;3.17;;;1.38;;
10309;SDS011;5200;43.236;27.986;2023-06-04T10:18:58;2.33;;;1.33;;
10309;SDS011;5200;43.236;27.986;2023-06-04T10:21:26;2.60;;;1.42;;
10309;SDS011;5200;43.236;27.986;2023-06-04T10:23:57;3.13;;;1.17;;
10309;SDS011;5200;43.236;27.986;2023-06-04T10:26:24;3.53;;;1.35;;
10309;SDS011;5200;43.236;27.986;2023-06-04T10:28:52;4.18;;;1.65;;
10309;SDS011;5200;43.236;27.986;2023-06-04T10:31:20;1.98;;;1.30;;
10309;SDS011;5200;43.236;27.986;2023-06-04T10:33:47;1.77;;;1.20;;
10309;SDS011;5200;43.236;27.986;2023-06-04T10:36:18;2.70;;;1.10;;
10309;SDS011;5200;43.236;27.986;2023-06-04T10:38:47;1.73;;;1.13;;
10309;SDS011;5200;43.236;27.986;2023-06-04T10:41:14;4.28;;;1.27;;
10309;SDS011;5200;43.236;27.986;2023-06-04T10:43:42;2.72;;;1.63;;
10309;SDS011;5200;43.236;27.986;2023-06-04T10:46:12;2.13;;;1.10;;
10309;SDS011;5200;43.236;27.986;2023-06-04T10:48:50;3.13;;;1.38;;
10309;SDS011;5200;43.236;27.986;2023-06-04T10:51:28;3.30;;;1.38;;
10309;SDS011;5200;43.236;27.986;2023-06-04T10:53:57;4.10;;;1.10;;
10309;SDS011;5200;43.236;27.986;2023-06-04T10:56:24;1.33;;;1.17;;
10309;SDS011;5200;43.236;27.986;2023-06-04T10:58:52;2.33;;;1.50;;
10309;SDS011;5200;43.236;27.986;2023-06-04T11:01:23;1.75;;;1.15;;
10309;SDS011;5200;43.236;27.986;2023-06-04T11:03:52;3.08;;;1.60;;
10309;SDS011;5200;43.236;27.986;2023-06-04T11:06:19;1.88;;;1.27;;
10309;SDS011;5200;43.236;27.986;2023-06-04T11:08:46;4.30;;;1.20;;
10309;SDS011;5200;43.236;27.986;2023-06-04T11:11:13;2.00;;;1.38;;
10309;SDS011;5200;43.236;27.986;2023-06-04T11:13:41;1.77;;;1.35;;
10309;SDS011;5200;43.236;27.986;2023-06-04T11:16:14;6.97;;;1.50;;
10309;SDS011;5200;43.236;27.986;2023-06-04T11:18:43;1.67;;;1.30;;
10309;SDS011;5200;43.236;27.986;2023-06-04T11:21:11;2.33;;;1.25;;
10309;SDS011;5200;43.236;27.986;2023-06-04T11:23:40;3.25;;;1.30;;
10309;SDS011;5200;43.236;27.986;2023-06-04T11:26:07;1.05;;;0.93;;
10309;SDS011;5200;43.236;27.986;2023-06-04T11:28:34;1.77;;;1.08;;
10309;SDS011;5200;43.236;27.986;2023-06-04T11:31:01;1.88;;;1.00;;
10309;SDS011;5200;43.236;27.986;2023-06-04T11:33:30;3.10;;;1.10;;
10309;SDS011;5200;43.236;27.986;2023-06-04T11:36:08;4.05;;;1.27;;
10309;SDS011;5200;43.236;27.986;2023-06-04T11:38:36;2.72;;;1.27;;
10309;SDS011;5200;43.236;27.986;2023-06-04T11:41:03;3.20;;;1.42;;
10309;SDS011;5200;43.236;27.986;2023-06-04T11:43:31;3.90;;;1.75;;
10309;SDS011;5200;43.236;27.986;2023-06-04T11:46:05;2.63;;;1.45;;
10309;SDS011;5200;43.236;27.986;2023-06-04T11:48:32;3.88;;;1.45;;
10309;SDS011;5200;43.236;27.986;2023-06-04T11:51:04;3.88;;;1.58;;
10309;SDS011;5200;43.236;27.986;2023-06-04T11:53:33;1.45;;;1.10;;
10309;SDS011;5200;43.236;27.986;2023-06-04T11:56:01;2.05;;;1.10;;
10309;SDS011;5200;43.236;27.986;2023-06-04T11:58:28;1.95;;;1.40;;
10309;SDS011;5200;43.236;27.986;2023-06-04T12:00:56;7.72;;;2.20;;
10309;SDS011;5200;43.236;27.986;2023-06-04T12:03:31;2.33;;;1.30;;
10309;SDS011;5200;43.236;27.986;2023-06-04T12:06:15;3.17;;;1.25;;
10309;SDS011;5200;43.236;27.986;2023-06-04T12:08:49;8.27;;;2.28;;
10309;SDS011;5200;43.236;27.986;2023-06-04T12:14:04;3.83;;;1.30;;
10309;SDS011;5200;43.236;27.986;2023-06-04T12:16:59;1.98;;;1.15;;
10309;SDS011;5200;43.236;27.986;2023-06-04T12:19:56;4.97;;;1.40;;
10309;SDS011;5200;43.236;27.986;2023-06-04T12:22:24;5.75;;;1.27;;
10309;SDS011;5200;43.236;27.986;2023-06-04T12:24:52;2.17;;;1.20;;
10309;SDS011;5200;43.236;27.986;2023-06-04T12:27:22;3.95;;;1.20;;
10309;SDS011;5200;43.236;27.986;2023-06-04T12:29:54;1.70;;;1.02;;
10309;SDS011;5200;43.236;27.986;2023-06-04T12:32:22;3.42;;;0.82;;
10309;SDS011;5200;43.236;27.986;2023-06-04T12:34:48;6.10;;;1.48;;
10309;SDS011;5200;43.236;27.986;2023-06-04T12:37:15;2.92;;;1.08;;
10309;SDS011;5200;43.236;27.986;2023-06-04T12:39:42;4.20;;;1.55;;
10309;SDS011;5200;43.236;27.986;2023-06-04T12:42:09;2.00;;;1.30;;
10309;SDS011;5200;43.236;27.986;2023-06-04T12:44:37;1.70;;;1.00;;
10309;SDS011;5200;43.236;27.986;2023-06-04T12:47:06;3.75;;;1.10;;
10309;SDS011;5200;43.236;27.986;2023-06-04T12:49:33;2.05;;;1.20;;
10309;SDS011;5200;43.236;27.986;2023-06-04T12:51:59;3.22;;;1.05;;
10309;SDS011;5200;43.236;27.986;2023-06-04T12:54:26;5.63;;;2.20;;
10309;SDS011;5200;43.236;27.986;2023-06-04T12:56:53;4.70;;;1.00;;
10309;SDS011;5200;43.236;27.986;2023-06-04T12:59:21;2.97;;;1.60;;
10309;SDS011;5200;43.236;27.986;2023-06-04T13:01:50;3.72;;;1.30;;
10309;SDS011;5200;43.236;27.986;2023-06-04T13:04:17;1.98;;;1.40;;
10309;SDS011;5200;43.236;27.986;2023-06-04T13:06:44;3.72;;;1.27;;
10309;SDS011;5200;43.236;27.986;2023-06-04T13:09:12;2.38;;;1.52;;
10309;SDS011;5200;43.236;27.986;2023-06-04T13:11:39;1.45;;;0.98;;
10309;SDS011;5200;43.236;27.986;2023-06-04T13:14:08;3.25;;;1.20;;
10309;SDS011;5200;43.236;27.986;2023-06-04T13:16:35;4.47;;;1.30;;
10309;SDS011;5200;43.236;27.986;2023-06-04T13:19:04;1.60;;;1.48;;
10309;SDS011;5200;43.236;27.986;2023-06-04T13:21:31;2.08;;;1.38;;
10309;SDS011;5200;43.236;27.986;2023-06-04T13:23:58;3.50;;;1.67;;
10309;SDS011;5200;43.236;27.986;2023-06-04T13:26:25;3.25;;;1.20;;
10309;SDS011;5200;43.236;27.986;2023-06-04T13:28:52;5.22;;;1.40;;
10309;SDS011;5200;43.236;27.986;2023-06-04T13:31:19;4.38;;;1.23;;
10309;SDS011;5200;43.236;27.986;2023-06-04T13:33:46;4.32;;;1.33;;
10309;SDS011;5200;43.236;27.986;2023-06-04T13:36:17;2.97;;;1.10;;
10309;SDS011;5200;43.236;27.986;2023-06-04T13:38:43;2.83;;;1.20;;
10309;SDS011;5200;43.236;27.986;2023-06-04T13:41:10;8.88;;;1.73;;
10309;SDS011;5200;43.236;27.986;2023-06-04T13:43:37;2.58;;;0.90;;
10309;SDS011;5200;43.236;27.986;2023-06-04T13:46:04;3.65;;;1.17;;
10309;SDS011;5200;43.236;27.986;2023-06-04T13:48:31;3.05;;;0.95;;
10309;SDS011;5200;43.236;27.986;2023-06-04T13:50:58;2.13;;;1.20;;
10309;SDS011;5200;43.236;27.986;2023-06-04T13:53:26;4.05;;;1.83;;
10309;SDS011;5200;43.236;27.986;2023-06-04T13:55:53;4.03;;;1.60;;
10309;SDS011;5200;43.236;27.986;2023-06-04T13:58:23;3.67;;;1.65;;
10309;SDS011;5200;43.236;27.986;2023-06-04T14:00:51;2.17;;;1.67;;
10309;SDS011;5200;43.236;27.986;2023-06-04T14:03:18;4.90;;;1.60;;
10309;SDS011;5200;43.236;27.986;2023-06-04T14:05:45;6.05;;;1.60;;
10309;SDS011;5200;43.236;27.986;2023-06-04T14:08:12;2.22;;;1.10;;
10309;SDS011;5200;43.236;27.986;2023-06-04T14:10:40;2.53;;;1.27;;
10309;SDS011;5200;43.236;27.986;2023-06-04T14:13:08;3.13;;;1.80;;
10309;SDS011;5200;43.236;27.986;2023-06-04T14:15:35;3.38;;;1.48;;
10309;SDS011;5200;43.236;27.986;2023-06-04T14:18:02;3.78;;;1.13;;
10309;SDS011;5200;43.236;27.986;2023-06-04T14:20:30;1.85;;;1.05;;
10309;SDS011;5200;43.236;27.986;2023-06-04T14:22:57;6.38;;;1.10;;
10309;SDS011;5200;43.236;27.986;2023-06-04T14:25:24;2.45;;;1.30;;
10309;SDS011;5200;43.236;27.986;2023-06-04T14:27:53;4.82;;;1.23;;
10309;SDS011;5200;43.236;27.986;2023-06-04T14:30:20;5.25;;;1.52;;
10309;SDS011;5200;43.236;27.986;2023-06-04T14:32:47;8.95;;;1.30;;
10309;SDS011;5200;43.236;27.986;2023-06-04T14:35:13;3.50;;;1.42;;
10309;SDS011;5200;43.236;27.986;2023-06-04T14:37:40;3.38;;;1.42;;
10309;SDS011;5200;43.236;27.986;2023-06-04T14:40:08;3.83;;;1.80;;
10309;SDS011;5200;43.236;27.986;2023-06-04T14:42:35;2.40;;;1.40;;
10309;SDS011;5200;43.236;27.986;2023-06-04T14:45:04;5.65;;;1.00;;
10309;SDS011;5200;43.236;27.986;2023-06-04T14:47:31;3.17;;;1.27;;
10309;SDS011;5200;43.236;27.986;2023-06-04T14:49:58;5.40;;;1.20;;
10309;SDS011;5200;43.236;27.986;2023-06-04T14:52:25;2.97;;;1.23;;
10309;SDS011;5200;43.236;27.986;2023-06-04T14:54:53;4.63;;;1.58;;
10309;SDS011;5200;43.236;27.986;2023-06-04T14:57:20;2.47;;;1.30;;